createdAt,value
2018-03-01T00:00:14.779Z,28.12
2018-03-01T00:01:14.766Z,28.26
2018-03-01T00:02:14.761Z,28.26
2018-03-01T00:03:14.807Z,28.28
2018-03-01T00:04:14.753Z,28.48
2018-03-01T00:05:14.866Z,28.28
2018-03-01T00:06:14.761Z,28.28
2018-03-01T00:07:14.783Z,28.29
2018-03-01T00:08:14.792Z,28.27
2018-03-01T00:09:14.803Z,28.2
2018-03-01T00:10:14.804Z,28.14
2018-03-01T00:11:14.770Z,28.37
2018-03-01T00:12:14.771Z,28.16
2018-03-01T00:13:14.784Z,28.05
2018-03-01T00:14:14.744Z,28.17
2018-03-01T00:15:14.766Z,28.25
2018-03-01T00:16:14.773Z,28.22
2018-03-01T00:17:14.811Z,28.32
2018-03-01T00:18:14.768Z,28.21
2018-03-01T00:19:14.774Z,28.1
2018-03-01T00:20:14.770Z,28.22
2018-03-01T00:21:14.866Z,28.25
2018-03-01T00:22:14.897Z,28.07
2018-03-01T00:23:14.764Z,28.37
2018-03-01T00:24:14.784Z,28.36
2018-03-01T00:25:14.784Z,28.33
2018-03-01T00:26:14.772Z,28.17
2018-03-01T00:27:14.783Z,28.16
2018-03-01T00:28:14.766Z,28.24
2018-03-01T00:29:14.751Z,28.22
2018-03-01T00:30:14.754Z,28.16
2018-03-01T00:31:14.756Z,28.23
2018-03-01T00:32:15.042Z,28.25
2018-03-01T00:33:14.782Z,28.3
2018-03-01T00:34:14.772Z,28.3
2018-03-01T00:35:14.764Z,28.22
2018-03-01T00:36:14.613Z,28.21
2018-03-01T00:37:14.776Z,28.4
2018-03-01T00:38:14.755Z,28.18
2018-03-01T00:39:14.740Z,28.16
2018-03-01T00:40:14.772Z,28.35
2018-03-01T00:41:14.762Z,28.26
2018-03-01T00:42:20.152Z,28.21
2018-03-01T00:43:14.759Z,28.37
2018-03-01T00:44:14.759Z,28.14
2018-03-01T00:45:14.744Z,28.33
2018-03-01T00:46:14.782Z,28.22
2018-03-01T00:47:14.755Z,28.33
2018-03-01T00:48:14.766Z,28.32
2018-03-01T00:49:14.767Z,28.32
2018-03-01T00:50:14.760Z,28.09
2018-03-01T00:51:14.782Z,28.23
2018-03-01T00:52:14.738Z,28.22
2018-03-01T00:53:14.755Z,28.21
2018-03-01T00:54:14.763Z,28.29
2018-03-01T00:55:14.753Z,28.2
2018-03-01T00:56:14.762Z,28.14
2018-03-01T00:57:14.736Z,28.31
2018-03-01T00:58:14.790Z,28.31
2018-03-01T00:59:14.750Z,28.26
2018-03-01T01:00:14.771Z,28.22
2018-03-01T01:01:14.770Z,28.3
2018-03-01T01:02:14.780Z,28.29
2018-03-01T01:03:14.762Z,28.21
2018-03-01T01:04:14.755Z,28.29
2018-03-01T01:05:14.802Z,28.09
2018-03-01T01:06:14.764Z,28.18
2018-03-01T01:07:14.755Z,28.15
2018-03-01T01:08:14.741Z,28.2
2018-03-01T01:09:14.761Z,28.26
2018-03-01T01:10:14.796Z,28.14
2018-03-01T01:11:14.763Z,28.09
2018-03-01T01:12:14.742Z,28.27
2018-03-01T01:13:14.776Z,28.29
2018-03-01T01:14:14.772Z,28.21
2018-03-01T01:15:14.745Z,28.27
2018-03-01T01:16:14.791Z,28.09
2018-03-01T01:17:14.752Z,28.13
2018-03-01T01:18:14.725Z,28.3
2018-03-01T01:19:14.743Z,28.22
2018-03-01T01:20:14.756Z,28.24
2018-03-01T01:21:14.812Z,28.3
2018-03-01T01:22:14.763Z,28.33
2018-03-01T01:23:14.749Z,28.04
2018-03-01T01:24:14.760Z,28.14
2018-03-01T01:25:14.762Z,28.28
2018-03-01T01:26:14.761Z,28.35
2018-03-01T01:27:14.756Z,28.39
2018-03-01T01:28:14.749Z,28.42
2018-03-01T01:29:14.744Z,28.38
2018-03-01T01:30:14.755Z,28.41
2018-03-01T01:31:14.859Z,28.35
2018-03-01T01:32:14.746Z,28.28
2018-03-01T01:33:14.735Z,28.29
2018-03-01T01:34:14.733Z,28.3
2018-03-01T01:35:14.724Z,28.1
2018-03-01T01:36:14.781Z,28.43
2018-03-01T01:37:14.750Z,28.48
2018-03-01T01:38:14.751Z,28.35
2018-03-01T01:39:14.739Z,28.28
2018-03-01T01:40:14.755Z,28.28
2018-03-01T01:41:14.748Z,28.28
2018-03-01T01:42:14.747Z,28.43
2018-03-01T01:43:14.775Z,28.34
2018-03-01T01:44:14.732Z,28.28
2018-03-01T01:45:14.746Z,28.4
2018-03-01T01:46:14.747Z,28.46
2018-03-01T01:47:15.014Z,28.19
2018-03-01T01:48:14.746Z,28.37
2018-03-01T01:49:14.710Z,28.25
2018-03-01T01:50:14.749Z,28.43
2018-03-01T01:51:14.736Z,28.28
2018-03-01T01:52:14.758Z,28.19
2018-03-01T01:53:14.737Z,28.32
2018-03-01T01:54:14.735Z,28.21
2018-03-01T01:55:14.730Z,28.19
2018-03-01T01:56:14.715Z,28.26
2018-03-01T01:57:14.592Z,28.27
2018-03-01T01:58:14.729Z,28.17
2018-03-01T01:59:14.731Z,28.19
2018-03-01T02:00:14.739Z,28.12
2018-03-01T02:01:14.738Z,28.08
2018-03-01T02:02:14.781Z,28.17
2018-03-01T02:03:14.993Z,28.15
2018-03-01T02:04:14.713Z,28.27
2018-03-01T02:05:14.726Z,28.17
2018-03-01T02:06:14.714Z,28.04
2018-03-01T02:07:14.741Z,28.27
2018-03-01T02:08:14.754Z,28.09
2018-03-01T02:09:14.743Z,28.13
2018-03-01T02:10:14.744Z,28.17
2018-03-01T02:11:14.741Z,28.23
2018-03-01T02:12:14.712Z,28.27
2018-03-01T02:13:14.726Z,28.34
2018-03-01T02:14:14.726Z,28.23
2018-03-01T02:15:14.732Z,28.16
2018-03-01T02:16:14.729Z,28.2
2018-03-01T02:17:14.754Z,28.27
2018-03-01T02:18:14.744Z,28.33
2018-03-01T02:19:14.741Z,28.32
2018-03-01T02:20:14.727Z,28.31
2018-03-01T02:21:14.750Z,28.16
2018-03-01T02:22:14.857Z,28.36
2018-03-01T02:23:14.833Z,28.34
2018-03-01T02:24:14.721Z,28.46
2018-03-01T02:25:14.716Z,28.33
2018-03-01T02:26:14.727Z,28.25
2018-03-01T02:27:14.719Z,28.3
2018-03-01T02:28:14.724Z,28.24
2018-03-01T02:29:14.714Z,28.46
2018-03-01T02:30:14.730Z,28.28
2018-03-01T02:31:14.736Z,28.23
2018-03-01T02:32:14.717Z,28.15
2018-03-01T02:33:14.721Z,28.36
2018-03-01T02:34:14.701Z,28.32
2018-03-01T02:35:14.729Z,28.27
2018-03-01T02:36:14.712Z,28.42
2018-03-01T02:37:14.728Z,28.09
2018-03-01T02:38:14.754Z,28.15
2018-03-01T02:39:14.702Z,28.19
2018-03-01T02:40:14.752Z,28.28
2018-03-01T02:41:14.736Z,28.25
2018-03-01T02:42:14.707Z,28.35
2018-03-01T02:43:14.756Z,28.08
2018-03-01T02:44:14.732Z,28.17
2018-03-01T02:45:14.725Z,28.17
2018-03-01T02:46:14.714Z,28.15
2018-03-01T02:47:14.722Z,28.33
2018-03-01T02:48:14.747Z,28.2
2018-03-01T02:49:14.700Z,28.1
2018-03-01T02:50:14.690Z,28.17
2018-03-01T02:51:14.714Z,28.37
2018-03-01T02:52:14.717Z,28.07
2018-03-01T02:53:14.692Z,28.08
2018-03-01T02:54:14.745Z,28.15
2018-03-01T02:55:14.716Z,28.12
2018-03-01T02:56:14.707Z,28.12
2018-03-01T02:57:14.701Z,28.17
2018-03-01T02:58:14.720Z,28.08
2018-03-01T02:59:14.699Z,28.08
2018-03-01T03:00:14.699Z,28.05
2018-03-01T03:01:14.706Z,28.34
2018-03-01T03:02:14.733Z,28.05
2018-03-01T03:03:14.703Z,28.02
2018-03-01T03:04:14.988Z,28.18
2018-03-01T03:05:14.722Z,28.1
2018-03-01T03:06:14.708Z,27.94
2018-03-01T03:07:14.699Z,28.23
2018-03-01T03:08:14.713Z,28.24
2018-03-01T03:09:14.719Z,28.15
2018-03-01T03:10:14.700Z,28.12
2018-03-01T03:11:14.690Z,28.07
2018-03-01T03:12:14.711Z,28.27
2018-03-01T03:13:14.698Z,28.12
2018-03-01T03:14:14.721Z,28.17
2018-03-01T03:15:14.713Z,28.35
2018-03-01T03:16:14.728Z,28.33
2018-03-01T03:17:14.719Z,28.27
2018-03-01T03:18:14.692Z,28.14
2018-03-01T03:19:14.689Z,28.33
2018-03-01T03:20:14.727Z,28.4
2018-03-01T03:21:14.698Z,28.38
2018-03-01T03:22:14.681Z,28.13
2018-03-01T03:23:14.693Z,28.29
2018-03-01T03:24:14.719Z,28.2
2018-03-01T03:25:15.018Z,28.42
2018-03-01T03:26:14.679Z,28.44
2018-03-01T03:27:14.702Z,28.44
2018-03-01T03:28:14.693Z,28.38
2018-03-01T03:29:14.705Z,28.33
2018-03-01T03:30:14.767Z,28.35
2018-03-01T03:31:14.714Z,28.4
2018-03-01T03:32:14.692Z,28.27
2018-03-01T03:33:14.732Z,28.29
2018-03-01T03:34:14.700Z,28.2
2018-03-01T03:35:14.700Z,28.32
2018-03-01T03:36:14.698Z,28.39
2018-03-01T03:37:14.713Z,28.35
2018-03-01T03:38:14.702Z,28.22
2018-03-01T03:39:14.708Z,28.22
2018-03-01T03:40:14.728Z,28.3
2018-03-01T03:41:14.700Z,28.2
2018-03-01T03:42:14.688Z,28.25
2018-03-01T03:43:14.712Z,28.23
2018-03-01T03:44:14.735Z,28.08
2018-03-01T03:45:14.696Z,28.24
2018-03-01T03:46:14.690Z,28.24
2018-03-01T03:47:14.731Z,28.1
2018-03-01T03:48:14.688Z,28.25
2018-03-01T03:49:14.680Z,28.17
2018-03-01T03:50:14.686Z,28.18
2018-03-01T03:51:14.699Z,28.11
2018-03-01T03:52:14.678Z,28.25
2018-03-01T03:53:14.697Z,28.2
2018-03-01T03:54:14.716Z,28.16
2018-03-01T03:55:14.704Z,28.16
2018-03-01T03:56:14.734Z,28.26
2018-03-01T03:57:14.722Z,28.13
2018-03-01T03:58:14.687Z,27.97
2018-03-01T03:59:14.697Z,28.27
2018-03-01T04:00:14.675Z,28.11
2018-03-01T04:01:14.708Z,28.27
2018-03-01T04:02:14.717Z,28.18
2018-03-01T04:03:14.704Z,28.17
2018-03-01T04:04:14.687Z,28.32
2018-03-01T04:05:14.691Z,28.35
2018-03-01T04:06:14.669Z,28.22
2018-03-01T04:07:14.697Z,28.33
2018-03-01T04:08:14.680Z,28.25
2018-03-01T04:09:14.708Z,28.16
2018-03-01T04:10:14.700Z,28.36
2018-03-01T04:11:14.682Z,28.31
2018-03-01T04:12:14.705Z,28.29
2018-03-01T04:13:14.737Z,28.24
2018-03-01T04:14:14.681Z,28.51
2018-03-01T04:15:14.702Z,28.43
2018-03-01T04:16:14.666Z,28.39
2018-03-01T04:17:14.748Z,28.38
2018-03-01T04:18:14.666Z,28.33
2018-03-01T04:19:14.689Z,28.31
2018-03-01T04:20:14.692Z,28.35
2018-03-01T04:21:14.698Z,28.33
2018-03-01T04:22:14.690Z,28.29
2018-03-01T04:23:14.766Z,28.41
2018-03-01T04:24:14.778Z,28.35
2018-03-01T04:25:14.692Z,28.23
2018-03-01T04:26:14.680Z,28.35
2018-03-01T04:27:14.706Z,28.37
2018-03-01T04:28:14.673Z,28.48
2018-03-01T04:29:14.667Z,28.38
2018-03-01T04:30:14.671Z,28.11
2018-03-01T04:31:14.681Z,28.18
2018-03-01T04:32:14.710Z,28.34
2018-03-01T04:33:14.696Z,28.48
2018-03-01T04:34:14.687Z,28.52
2018-03-01T04:35:14.748Z,28.31
2018-03-01T04:36:14.670Z,28.29
2018-03-01T04:37:14.658Z,28.31
2018-03-01T04:38:14.954Z,28.48
2018-03-01T04:39:14.670Z,28.1
2018-03-01T04:40:14.663Z,28.32
2018-03-01T04:41:14.672Z,28.15
2018-03-01T04:42:14.670Z,28.33
2018-03-01T04:43:14.705Z,28.13
2018-03-01T04:44:14.665Z,28.37
2018-03-01T04:45:14.667Z,28.33
2018-03-01T04:46:14.670Z,28.32
2018-03-01T04:47:14.677Z,28.31
2018-03-01T04:48:14.700Z,28.24
2018-03-01T04:49:14.691Z,28.24
2018-03-01T04:50:14.650Z,28.21
2018-03-01T04:51:14.673Z,28.18
2018-03-01T04:52:14.686Z,28.15
2018-03-01T04:53:14.673Z,28.29
2018-03-01T04:54:14.693Z,28.28
2018-03-01T04:55:14.679Z,28.26
2018-03-01T04:56:14.668Z,28.3
2018-03-01T04:57:14.684Z,28.29
2018-03-01T04:58:14.715Z,28.45
2018-03-01T04:59:14.699Z,28.09
2018-03-01T05:00:14.679Z,28.38
2018-03-01T05:01:14.661Z,28.41
2018-03-01T05:02:14.665Z,28.31
2018-03-01T05:03:14.685Z,28.49
2018-03-01T05:04:14.654Z,28.5
2018-03-01T05:05:14.702Z,28.49
2018-03-01T05:06:14.672Z,28.38
2018-03-01T05:07:14.663Z,28.51
2018-03-01T05:08:14.653Z,28.66
2018-03-01T05:09:14.647Z,28.65
2018-03-01T05:10:14.680Z,28.68
2018-03-01T05:11:14.650Z,28.55
2018-03-01T05:12:14.649Z,28.69
2018-03-01T05:13:14.710Z,28.66
2018-03-01T05:14:14.653Z,28.78
2018-03-01T05:15:14.641Z,28.7
2018-03-01T05:16:14.774Z,28.53
2018-03-01T05:17:14.663Z,28.65
2018-03-01T05:18:14.679Z,28.85
2018-03-01T05:19:14.643Z,28.86
2018-03-01T05:20:14.667Z,28.83
2018-03-01T05:21:14.651Z,28.83
2018-03-01T05:22:14.705Z,28.81
2018-03-01T05:23:14.677Z,28.9
2018-03-01T05:24:14.655Z,28.82
2018-03-01T05:25:14.662Z,28.63
2018-03-01T05:26:14.671Z,28.73
2018-03-01T05:27:14.667Z,28.82
2018-03-01T05:28:14.677Z,28.67
2018-03-01T05:29:14.695Z,28.36
2018-03-01T05:30:14.695Z,28.57
2018-03-01T05:31:14.647Z,28.79
2018-03-01T05:32:14.651Z,28.46
2018-03-01T05:33:14.660Z,28.51
2018-03-01T05:34:14.680Z,28.51
2018-03-01T05:35:14.651Z,28.65
2018-03-01T05:36:14.668Z,28.43
2018-03-01T05:37:14.669Z,28.41
2018-03-01T05:38:14.651Z,28.49
2018-03-01T05:39:14.649Z,28.41
2018-03-01T05:40:14.674Z,28.46
2018-03-01T05:41:14.709Z,28.49
2018-03-01T05:42:14.632Z,28.35
2018-03-01T05:43:14.666Z,28.37
2018-03-01T05:44:14.663Z,28.39
2018-03-01T05:45:14.666Z,28.33
2018-03-01T05:46:14.652Z,28.41
2018-03-01T05:47:14.653Z,28.37
2018-03-01T05:48:14.642Z,28.27
2018-03-01T05:49:14.681Z,28.36
2018-03-01T05:50:14.732Z,28.35
2018-03-01T05:51:14.638Z,28.34
2018-03-01T05:52:14.648Z,28.38
2018-03-01T05:53:14.669Z,28.39
2018-03-01T05:54:14.658Z,28.32
2018-03-01T05:55:14.691Z,28.28
2018-03-01T05:56:14.666Z,28.32
2018-03-01T05:57:14.649Z,28.25
2018-03-01T05:58:14.646Z,28.39
2018-03-01T05:59:14.625Z,28.25
2018-03-01T06:00:14.694Z,28.38
2018-03-01T06:01:14.651Z,28.36
2018-03-01T06:02:14.665Z,28.21
2018-03-01T06:03:14.637Z,28.25
2018-03-01T06:04:14.649Z,28.31
2018-03-01T06:05:14.685Z,28.3
2018-03-01T06:06:14.640Z,28.26
2018-03-01T06:07:14.654Z,28.32
2018-03-01T06:08:14.656Z,28.2
2018-03-01T06:09:14.629Z,28.22
2018-03-01T06:10:14.717Z,28.33
2018-03-01T06:11:14.640Z,28.23
2018-03-01T06:12:14.653Z,28.27
2018-03-01T06:13:14.631Z,28.25
2018-03-01T06:14:14.652Z,28.16
2018-03-01T06:15:14.956Z,28.24
2018-03-01T06:16:14.644Z,28.23
2018-03-01T06:17:14.652Z,28.27
2018-03-01T06:18:14.630Z,28.25
2018-03-01T06:19:14.622Z,28.09
2018-03-01T06:20:14.661Z,28.26
2018-03-01T06:21:14.644Z,28.08
2018-03-01T06:22:14.652Z,28.19
2018-03-01T06:23:14.636Z,28.21
2018-03-01T06:24:14.746Z,28.22
2018-03-01T06:25:14.763Z,28.17
2018-03-01T06:26:14.644Z,28.37
2018-03-01T06:27:14.624Z,28.02
2018-03-01T06:28:14.655Z,28.3
2018-03-01T06:29:14.621Z,28.26
2018-03-01T06:30:14.660Z,28.09
2018-03-01T06:31:14.641Z,28.13
2018-03-01T06:32:14.645Z,28.23
2018-03-01T06:33:14.643Z,28
2018-03-01T06:34:14.646Z,28.05
2018-03-01T06:35:14.641Z,28.1
2018-03-01T06:36:14.654Z,27.87
2018-03-01T06:37:14.609Z,28.12
2018-03-01T06:38:14.638Z,28.15
2018-03-01T06:39:14.627Z,28.02
2018-03-01T06:40:14.646Z,27.98
2018-03-01T06:41:14.618Z,28.05
2018-03-01T06:42:14.662Z,28.08
2018-03-01T06:43:14.637Z,27.99
2018-03-01T06:44:14.669Z,28.04
2018-03-01T06:45:14.632Z,27.91
2018-03-01T06:46:14.630Z,28.06
2018-03-01T06:47:14.649Z,28.03
2018-03-01T06:48:14.615Z,27.96
2018-03-01T06:49:14.658Z,27.93
2018-03-01T06:50:14.637Z,28.04
2018-03-01T06:51:14.618Z,27.99
2018-03-01T06:52:14.632Z,27.88
2018-03-01T06:53:14.701Z,27.95
2018-03-01T06:54:14.919Z,28.04
2018-03-01T06:55:14.637Z,27.98
2018-03-01T06:56:14.630Z,28
2018-03-01T06:57:14.639Z,27.99
2018-03-01T06:58:14.622Z,27.86
2018-03-01T06:59:14.662Z,28.02
2018-03-01T07:00:14.652Z,28.02
2018-03-01T07:01:14.648Z,27.98
2018-03-01T07:02:14.650Z,28.12
2018-03-01T07:03:14.627Z,27.9
2018-03-01T07:04:14.650Z,27.93
2018-03-01T07:05:14.630Z,27.98
2018-03-01T07:06:14.637Z,28.03
2018-03-01T07:07:14.612Z,27.97
2018-03-01T07:08:14.630Z,27.98
2018-03-01T07:09:14.601Z,27.9
2018-03-01T07:10:14.635Z,27.95
2018-03-01T07:11:14.665Z,28.08
2018-03-01T07:12:14.617Z,27.81
2018-03-01T07:13:14.613Z,28.01
2018-03-01T07:14:14.611Z,27.81
2018-03-01T07:15:14.606Z,27.9
2018-03-01T07:16:14.624Z,27.69
2018-03-01T07:17:14.608Z,27.8
2018-03-01T07:18:14.619Z,27.68
2018-03-01T07:19:14.646Z,28.01
2018-03-01T07:20:14.662Z,27.8
2018-03-01T07:21:14.614Z,27.7
2018-03-01T07:22:14.605Z,27.86
2018-03-01T07:23:14.624Z,27.87
2018-03-01T07:24:14.610Z,27.76
2018-03-01T07:25:14.646Z,27.84
2018-03-01T07:26:14.613Z,27.75
2018-03-01T07:27:14.601Z,27.83
2018-03-01T07:28:14.622Z,27.85
2018-03-01T07:29:14.620Z,27.81
2018-03-01T07:30:14.607Z,27.96
2018-03-01T07:31:14.620Z,27.89
2018-03-01T07:32:14.641Z,27.87
2018-03-01T07:33:14.593Z,27.97
2018-03-01T07:34:14.611Z,27.7
2018-03-01T07:35:14.620Z,27.82
2018-03-01T07:36:14.642Z,28.02
2018-03-01T07:37:14.621Z,27.94
2018-03-01T07:38:14.588Z,27.88
2018-03-01T07:39:14.615Z,27.84
2018-03-01T07:40:14.605Z,27.75
2018-03-01T07:41:14.604Z,27.86
2018-03-01T07:42:14.617Z,27.77
2018-03-01T07:43:14.615Z,27.83
2018-03-01T07:44:14.598Z,27.79
2018-03-01T07:45:14.592Z,27.78
2018-03-01T07:46:14.630Z,27.88
2018-03-01T07:47:14.609Z,27.92
2018-03-01T07:48:14.593Z,27.84
2018-03-01T07:49:14.688Z,27.88
2018-03-01T07:50:14.621Z,27.99
2018-03-01T07:51:14.633Z,27.89
2018-03-01T07:52:14.615Z,27.91
2018-03-01T07:53:14.594Z,27.82
2018-03-01T07:54:14.599Z,27.83
2018-03-01T07:55:14.627Z,27.81
2018-03-01T07:56:14.676Z,27.84
2018-03-01T07:57:14.626Z,27.92
2018-03-01T07:58:14.614Z,27.63
2018-03-01T07:59:14.623Z,27.81
2018-03-01T08:00:14.591Z,27.6
2018-03-01T08:01:14.612Z,27.86
2018-03-01T08:02:14.606Z,27.8
2018-03-01T08:03:14.605Z,27.78
2018-03-01T08:04:14.615Z,27.99
2018-03-01T08:05:14.621Z,27.84
2018-03-01T08:06:14.586Z,27.67
2018-03-01T08:07:14.617Z,27.86
2018-03-01T08:08:14.605Z,27.77
2018-03-01T08:09:14.597Z,27.83
2018-03-01T08:10:14.602Z,27.56
2018-03-01T08:11:14.620Z,27.68
2018-03-01T08:12:14.604Z,27.87
2018-03-01T08:13:14.589Z,27.85
2018-03-01T08:14:14.604Z,27.8
2018-03-01T08:15:14.580Z,27.65
2018-03-01T08:16:14.636Z,27.5
2018-03-01T08:17:14.604Z,27.73
2018-03-01T08:18:14.592Z,27.82
2018-03-01T08:19:14.601Z,27.83
2018-03-01T08:20:14.587Z,27.84
2018-03-01T08:21:14.617Z,27.52
2018-03-01T08:22:14.577Z,27.78
2018-03-01T08:23:14.584Z,27.84
2018-03-01T08:24:14.612Z,27.59
2018-03-01T08:25:14.789Z,27.65
2018-03-01T08:26:14.699Z,27.59
2018-03-01T08:27:14.595Z,27.99
2018-03-01T08:28:14.603Z,27.82
2018-03-01T08:29:14.599Z,27.69
2018-03-01T08:30:14.641Z,27.75
2018-03-01T08:31:14.608Z,27.61
2018-03-01T08:32:14.627Z,27.88
2018-03-01T08:33:14.629Z,27.73
2018-03-01T08:34:14.633Z,27.65
2018-03-01T08:35:14.581Z,27.74
2018-03-01T08:36:14.598Z,27.91
2018-03-01T08:37:14.602Z,27.63
2018-03-01T08:38:14.592Z,27.65
2018-03-01T08:39:14.607Z,27.83
2018-03-01T08:40:14.587Z,27.8
2018-03-01T08:41:14.578Z,27.61
2018-03-01T08:42:14.583Z,27.96
2018-03-01T08:43:14.593Z,27.7
2018-03-01T08:44:14.616Z,27.69
2018-03-01T08:45:14.583Z,27.64
2018-03-01T08:46:14.604Z,27.81
2018-03-01T08:47:14.575Z,27.95
2018-03-01T08:48:14.585Z,27.69
2018-03-01T08:49:14.616Z,27.73
2018-03-01T08:50:14.599Z,27.72
2018-03-01T08:51:14.581Z,27.72
2018-03-01T08:52:14.591Z,27.73
2018-03-01T08:53:14.576Z,27.66
2018-03-01T08:54:14.594Z,27.65
2018-03-01T08:55:14.591Z,27.71
2018-03-01T08:56:14.612Z,27.52
2018-03-01T08:57:14.564Z,27.56
2018-03-01T08:58:14.588Z,27.65
2018-03-01T08:59:14.584Z,27.7
2018-03-01T09:00:14.581Z,27.72
2018-03-01T09:01:14.596Z,27.62
2018-03-01T09:02:14.601Z,27.68
2018-03-01T09:03:14.576Z,27.56
2018-03-01T09:04:14.615Z,27.44
2018-03-01T09:05:14.605Z,27.64
2018-03-01T09:06:14.601Z,27.48
2018-03-01T09:07:14.579Z,27.5
2018-03-01T09:08:14.576Z,27.77
2018-03-01T09:09:14.571Z,27.55
2018-03-01T09:10:14.588Z,27.65
2018-03-01T09:11:14.611Z,27.62
2018-03-01T09:12:14.596Z,27.56
2018-03-01T09:13:14.570Z,27.55
2018-03-01T09:14:14.569Z,27.84
2018-03-01T09:15:14.600Z,27.7
2018-03-01T09:16:14.571Z,27.64
2018-03-01T09:17:14.587Z,27.81
2018-03-01T09:18:14.577Z,27.54
2018-03-01T09:19:14.573Z,27.59
2018-03-01T09:20:14.628Z,27.6
2018-03-01T09:21:14.581Z,27.59
2018-03-01T09:22:14.572Z,27.37
2018-03-01T09:23:14.575Z,27.52
2018-03-01T09:24:14.569Z,27.62
2018-03-01T09:25:14.586Z,27.51
2018-03-01T09:26:14.576Z,27.63
2018-03-01T09:27:14.548Z,27.67
2018-03-01T09:28:14.585Z,27.57
2018-03-01T09:29:14.602Z,27.58
2018-03-01T09:30:14.547Z,27.56
2018-03-01T09:31:14.617Z,27.73
2018-03-01T09:32:14.580Z,27.67
2018-03-01T09:33:14.561Z,27.81
2018-03-01T09:34:14.580Z,27.84
2018-03-01T09:35:14.573Z,27.63
2018-03-01T09:36:14.583Z,27.76
2018-03-01T09:37:14.571Z,27.65
2018-03-01T09:38:14.575Z,27.68
2018-03-01T09:39:14.582Z,27.54
2018-03-01T09:40:14.573Z,27.73
2018-03-01T09:41:14.561Z,27.61
2018-03-01T09:42:14.558Z,27.66
2018-03-01T09:43:14.577Z,27.84
2018-03-01T09:44:14.575Z,27.74
2018-03-01T09:45:14.565Z,27.76
2018-03-01T09:46:14.592Z,27.69
2018-03-01T09:47:14.554Z,27.9
2018-03-01T09:48:14.565Z,27.84
2018-03-01T09:49:14.550Z,28.25
2018-03-01T09:50:14.554Z,27.81
2018-03-01T09:51:14.577Z,27.9
2018-03-01T09:52:14.553Z,27.94
2018-03-01T09:53:14.566Z,28.09
2018-03-01T09:54:14.598Z,28.17
2018-03-01T09:55:14.564Z,28.07
2018-03-01T09:56:14.622Z,28.15
2018-03-01T09:57:14.563Z,28.19
2018-03-01T09:58:14.583Z,28.19
2018-03-01T09:59:14.558Z,28.24
2018-03-01T10:00:14.608Z,28.37
2018-03-01T10:01:14.556Z,28.36
2018-03-01T10:02:14.887Z,28.24
2018-03-01T10:03:14.619Z,28.31
2018-03-01T10:04:14.547Z,28.38
2018-03-01T10:05:14.721Z,28.43
2018-03-01T10:06:14.556Z,28.38
2018-03-01T10:07:14.651Z,28.25
2018-03-01T10:08:14.548Z,28.4
2018-03-01T10:09:14.573Z,28.46
2018-03-01T10:10:14.568Z,28.33
2018-03-01T10:11:14.571Z,28.46
2018-03-01T10:12:14.578Z,28.39
2018-03-01T10:13:14.540Z,28.39
2018-03-01T10:14:14.561Z,28.34
2018-03-01T10:15:14.540Z,28.39
2018-03-01T10:16:14.548Z,28.4
2018-03-01T10:17:14.618Z,28.38
2018-03-01T10:18:14.575Z,28.39
2018-03-01T10:19:14.571Z,28.36
2018-03-01T10:20:14.559Z,28.4
2018-03-01T10:21:14.556Z,28.39
2018-03-01T10:22:14.571Z,28.28
2018-03-01T10:23:14.554Z,28.24
2018-03-01T10:24:14.567Z,28.52
2018-03-01T10:25:14.587Z,28.48
2018-03-01T10:26:14.650Z,28.37
2018-03-01T10:27:14.656Z,28.54
2018-03-01T10:28:14.546Z,28.37
2018-03-01T10:29:14.558Z,28.38
2018-03-01T10:30:14.576Z,28.4
2018-03-01T10:31:14.573Z,28.51
2018-03-01T10:32:14.554Z,28.16
2018-03-01T10:33:14.587Z,28.41
2018-03-01T10:34:14.556Z,28.46
2018-03-01T10:35:14.564Z,28.32
2018-03-01T10:36:14.564Z,28.29
2018-03-01T10:37:14.550Z,28.27
2018-03-01T10:38:14.592Z,28.24
2018-03-01T10:39:14.550Z,28.25
2018-03-01T10:40:14.533Z,28.01
2018-03-01T10:41:14.540Z,28.3
2018-03-01T10:42:14.585Z,28.17
2018-03-01T10:43:14.582Z,27.94
2018-03-01T10:44:14.530Z,28.07
2018-03-01T10:45:14.549Z,28.04
2018-03-01T10:46:14.547Z,28.04
2018-03-01T10:47:14.559Z,28.19
2018-03-01T10:48:14.586Z,27.98
2018-03-01T10:49:14.585Z,28.02
2018-03-01T10:50:14.546Z,27.93
2018-03-01T10:51:14.536Z,28.17
2018-03-01T10:52:14.584Z,27.98
2018-03-01T10:53:14.557Z,28.16
2018-03-01T10:54:14.826Z,27.93
2018-03-01T10:55:14.562Z,28.11
2018-03-01T10:56:14.557Z,28.02
2018-03-01T10:57:14.532Z,28.01
2018-03-01T10:58:14.565Z,28.23
2018-03-01T10:59:14.572Z,28.2
2018-03-01T11:00:14.548Z,28.25
2018-03-01T11:01:14.555Z,28.21
2018-03-01T11:02:14.544Z,28.07
2018-03-01T11:03:14.527Z,28.15
2018-03-01T11:04:14.574Z,28.03
2018-03-01T11:05:14.673Z,28.03
2018-03-01T11:06:14.561Z,27.87
2018-03-01T11:07:14.546Z,28.14
2018-03-01T11:08:14.553Z,28.18
2018-03-01T11:09:14.573Z,28.1
2018-03-01T11:10:14.550Z,28.09
2018-03-01T11:11:14.535Z,28.08
2018-03-01T11:12:14.528Z,28.25
2018-03-01T11:13:14.530Z,28.18
2018-03-01T11:14:14.544Z,28.07
2018-03-01T11:15:14.530Z,27.98
2018-03-01T11:16:14.564Z,28.08
2018-03-01T11:17:14.699Z,28.07
2018-03-01T11:18:14.545Z,28.3
2018-03-01T11:19:14.542Z,28.02
2018-03-01T11:20:14.525Z,28.09
2018-03-01T11:21:14.555Z,28.04
2018-03-01T11:22:14.528Z,27.95
2018-03-01T11:23:14.653Z,27.96
2018-03-01T11:24:14.558Z,27.87
2018-03-01T11:25:14.549Z,27.98
2018-03-01T11:26:14.536Z,28.13
2018-03-01T11:27:14.526Z,28.06
2018-03-01T11:28:14.556Z,27.95
2018-03-01T11:29:14.594Z,27.94
2018-03-01T11:30:14.523Z,27.97
2018-03-01T11:31:14.534Z,28
2018-03-01T11:32:14.527Z,28.16
2018-03-01T11:33:14.538Z,27.74
2018-03-01T11:34:14.535Z,28.05
2018-03-01T11:35:14.550Z,27.82
2018-03-01T11:36:14.528Z,27.98
2018-03-01T11:37:14.531Z,27.89
2018-03-01T11:38:14.541Z,28.1
2018-03-01T11:39:14.558Z,27.97
2018-03-01T11:40:14.566Z,27.97
2018-03-01T11:41:14.502Z,27.92
2018-03-01T11:42:14.516Z,27.94
2018-03-01T11:43:14.528Z,28.03
2018-03-01T11:44:14.558Z,27.82
2018-03-01T11:45:14.541Z,27.9
2018-03-01T11:46:14.526Z,27.89
2018-03-01T11:47:14.533Z,27.89
2018-03-01T11:48:14.530Z,27.9
2018-03-01T11:49:14.676Z,28.01
2018-03-01T11:50:14.520Z,27.84
2018-03-01T11:51:14.532Z,27.85
2018-03-01T11:52:14.533Z,27.69
2018-03-01T11:53:14.533Z,27.79
2018-03-01T11:54:14.520Z,27.88
2018-03-01T11:55:14.529Z,27.91
2018-03-01T11:56:14.508Z,27.88
2018-03-01T11:57:14.515Z,27.95
2018-03-01T11:58:14.516Z,27.84
2018-03-01T11:59:14.592Z,27.94
2018-03-01T12:00:14.537Z,27.84
2018-03-01T12:01:14.521Z,27.88
2018-03-01T12:02:14.523Z,28
2018-03-01T12:03:14.507Z,27.9
2018-03-01T12:04:14.551Z,27.77
2018-03-01T12:05:14.537Z,28.03
2018-03-01T12:06:14.518Z,27.98
2018-03-01T12:07:14.569Z,27.84
2018-03-01T12:08:14.503Z,27.76
2018-03-01T12:09:14.508Z,27.74
2018-03-01T12:10:14.509Z,27.85
2018-03-01T12:11:14.518Z,27.81
2018-03-01T12:12:14.529Z,27.88
2018-03-01T12:13:14.544Z,27.78
2018-03-01T12:14:14.527Z,28.13
2018-03-01T12:15:14.527Z,27.86
2018-03-01T12:16:14.497Z,28
2018-03-01T12:17:14.530Z,27.75
2018-03-01T12:18:14.524Z,27.87
2018-03-01T12:19:14.510Z,27.79
2018-03-01T12:20:14.518Z,27.91
2018-03-01T12:21:14.504Z,27.75
2018-03-01T12:22:14.540Z,27.75
2018-03-01T12:23:14.529Z,27.88
2018-03-01T12:24:14.519Z,27.72
2018-03-01T12:25:14.505Z,27.98
2018-03-01T12:26:14.531Z,28.07
2018-03-01T12:27:14.617Z,27.89
2018-03-01T12:28:14.638Z,27.65
2018-03-01T12:29:14.494Z,27.96
2018-03-01T12:30:14.512Z,27.85
2018-03-01T12:31:14.520Z,27.86
2018-03-01T12:32:14.521Z,28.02
2018-03-01T12:33:14.553Z,28.02
2018-03-01T12:34:14.531Z,27.88
2018-03-01T12:35:14.538Z,27.78
2018-03-01T12:36:14.518Z,27.96
2018-03-01T12:37:14.503Z,27.9
2018-03-01T12:38:14.525Z,27.7
2018-03-01T12:39:14.525Z,27.87
2018-03-01T12:40:14.484Z,27.85
2018-03-01T12:41:14.509Z,27.86
2018-03-01T12:42:14.518Z,28.01
2018-03-01T12:43:14.501Z,27.86
2018-03-01T12:44:14.530Z,28.02
2018-03-01T12:45:14.515Z,27.85
2018-03-01T12:46:14.588Z,27.89
2018-03-01T12:47:14.547Z,27.87
2018-03-01T12:48:14.501Z,27.73
2018-03-01T12:49:14.515Z,27.81
2018-03-01T12:50:14.530Z,27.82
2018-03-01T12:51:14.532Z,27.91
2018-03-01T12:52:14.507Z,27.85
2018-03-01T12:53:14.534Z,27.74
2018-03-01T12:54:14.546Z,27.75
2018-03-01T12:55:14.514Z,27.81